createdAt,value
2018-12-27T00:01:39.398Z,6.80
2018-12-27T00:04:08.748Z,6.80
2018-12-27T00:06:37.703Z,6.80
2018-12-27T00:09:07.694Z,6.70
2018-12-27T00:11:36.762Z,6.70
2018-12-27T00:14:05.940Z,6.70
2018-12-27T00:16:35.600Z,6.70
2018-12-27T00:19:04.634Z,6.70
2018-12-27T00:21:33.640Z,6.70
2018-12-27T00:24:02.586Z,6.70
2018-12-27T00:26:31.627Z,6.70
2018-12-27T00:29:01.011Z,6.70
2018-12-27T00:31:30.559Z,6.70
2018-12-27T00:33:59.941Z,6.70
2018-12-27T00:36:29.316Z,6.70
2018-12-27T00:38:58.766Z,6.70
2018-12-27T00:41:28.162Z,6.70
2018-12-27T00:43:57.508Z,6.60
2018-12-27T00:46:26.939Z,6.60
2018-12-27T00:48:56.301Z,6.60
2018-12-27T00:51:25.346Z,6.60
2018-12-27T00:53:54.422Z,6.60
2018-12-27T00:56:24.397Z,6.60
2018-12-27T00:58:53.464Z,6.60
2018-12-27T01:01:22.821Z,6.60
2018-12-27T01:03:51.839Z,6.60
2018-12-27T01:06:21.277Z,6.60
2018-12-27T01:08:50.663Z,6.60
2018-12-27T01:11:19.712Z,6.60
2018-12-27T01:13:49.031Z,6.60
2018-12-27T01:16:18.389Z,6.60
2018-12-27T01:18:47.787Z,6.70
2018-12-27T01:21:36.027Z,6.70
2018-12-27T01:24:24.456Z,6.70
2018-12-27T01:27:12.883Z,6.70
2018-12-27T01:30:01.013Z,6.70
2018-12-27T01:32:42.351Z,6.70
2018-12-27T01:35:23.471Z,6.70
2018-12-27T01:38:04.636Z,6.80
2018-12-27T01:40:45.336Z,6.70
2018-12-27T01:43:25.785Z,6.80
2018-12-27T01:46:06.486Z,6.70
2018-12-27T01:48:47.794Z,6.80
2018-12-27T01:51:28.768Z,6.80
2018-12-27T01:54:09.512Z,6.80
2018-12-27T01:56:49.953Z,6.80
2018-12-27T01:59:31.428Z,6.80
2018-12-27T02:02:12.713Z,6.80
2018-12-27T02:04:54.022Z,6.80
2018-12-27T02:07:34.628Z,6.80
2018-12-27T02:10:15.670Z,6.80
2018-12-27T02:12:56.267Z,6.70
2018-12-27T02:15:37.164Z,6.00
2018-12-27T02:18:18.111Z,6.70
2018-12-27T02:20:58.961Z,6.60
2018-12-27T02:23:40.262Z,6.60
2018-12-27T02:26:21.026Z,6.60
2018-12-27T02:29:02.117Z,6.50
2018-12-27T02:31:42.846Z,6.50
2018-12-27T02:34:23.571Z,6.50
2018-12-27T02:37:04.713Z,6.40
2018-12-27T02:42:27.371Z,6.40
2018-12-27T02:45:08.964Z,6.40
2018-12-27T02:47:49.757Z,6.40
2018-12-27T02:50:30.175Z,6.40
2018-12-27T02:53:10.982Z,6.40
2018-12-27T02:55:51.808Z,6.40
2018-12-27T02:58:32.820Z,6.40
2018-12-27T03:01:13.356Z,6.30
2018-12-27T03:03:54.571Z,6.30
2018-12-27T03:06:35.631Z,6.30
2018-12-27T03:09:16.651Z,6.30
2018-12-27T03:11:57.190Z,6.40
2018-12-27T03:14:38.213Z,6.40
2018-12-27T03:17:18.782Z,6.40
2018-12-27T03:19:59.252Z,6.40
2018-12-27T03:22:40.494Z,6.40
2018-12-27T03:25:21.681Z,5.20
2018-12-27T03:28:02.305Z,6.30
2018-12-27T03:30:43.194Z,6.30
2018-12-27T03:33:23.712Z,6.20
2018-12-27T03:36:04.702Z,6.20
2018-12-27T03:38:46.162Z,6.20
2018-12-27T03:41:27.871Z,6.10
2018-12-27T03:44:09.023Z,6.10
2018-12-27T03:46:49.787Z,6.00
2018-12-27T03:49:30.821Z,6.00
2018-12-27T03:52:12.163Z,6.00
2018-12-27T03:54:53.455Z,5.90
2018-12-27T03:57:34.400Z,5.90
2018-12-27T04:00:03.796Z,5.90
2018-12-27T04:02:51.942Z,5.80
2018-12-27T04:05:40.549Z,5.80
2018-12-27T04:08:28.675Z,5.80
2018-12-27T04:11:16.811Z,5.80
2018-12-27T04:14:04.979Z,5.70
2018-12-27T04:16:53.542Z,5.70
2018-12-27T04:19:41.634Z,5.70
2018-12-27T04:22:30.034Z,5.70
2018-12-27T04:25:18.476Z,5.60
2018-12-27T04:28:06.922Z,5.60
2018-12-27T04:30:55.040Z,5.60
2018-12-27T04:33:35.670Z,5.50
2018-12-27T04:36:16.005Z,5.50
2018-12-27T04:38:57.384Z,5.40
2018-12-27T04:41:37.838Z,5.40
2018-12-27T04:44:19.299Z,5.40
2018-12-27T04:47:00.100Z,5.40
2018-12-27T04:49:39.271Z,5.30
2018-12-27T04:52:27.597Z,5.30
2018-12-27T04:55:16.912Z,5.30
2018-12-27T04:58:05.057Z,5.20
2018-12-27T05:00:53.481Z,5.20
2018-12-27T05:03:41.935Z,5.20
2018-12-27T05:06:30.031Z,5.20
2018-12-27T05:09:18.417Z,5.20
2018-12-27T05:12:06.923Z,5.20
2018-12-27T05:14:54.960Z,5.20
2018-12-27T05:17:43.044Z,5.20
2018-12-27T05:20:31.545Z,5.20
2018-12-27T05:23:19.608Z,5.20
2018-12-27T05:26:07.685Z,5.20
2018-12-27T05:28:55.765Z,5.10
2018-12-27T05:31:43.915Z,5.20
2018-12-27T05:34:26.383Z,5.10
2018-12-27T05:37:07.508Z,5.60
2018-12-27T05:39:48.174Z,5.20
2018-12-27T05:42:28.748Z,5.20
2018-12-27T05:45:09.502Z,5.20
2018-12-27T05:47:50.175Z,5.20
2018-12-27T05:50:31.135Z,5.20
2018-12-27T05:53:11.883Z,5.20
2018-12-27T05:55:52.292Z,5.20
2018-12-27T05:58:32.778Z,5.20
2018-12-27T06:01:13.640Z,5.20
2018-12-27T06:03:54.266Z,5.20
2018-12-27T06:06:35.324Z,5.20
2018-12-27T06:09:16.176Z,5.20
2018-12-27T06:11:56.780Z,5.20
2018-12-27T06:14:37.555Z,5.20
2018-12-27T06:17:18.399Z,5.20
2018-12-27T06:19:59.117Z,5.20
2018-12-27T06:22:39.891Z,5.20
2018-12-27T06:25:20.628Z,5.20
2018-12-27T06:28:01.655Z,4.80
2018-12-27T06:30:42.178Z,5.20
2018-12-27T06:33:23.033Z,5.20
2018-12-27T06:36:03.913Z,5.20
2018-12-27T06:38:33.123Z,5.20
2018-12-27T06:41:21.282Z,5.20
2018-12-27T06:44:09.445Z,5.20
2018-12-27T06:46:57.848Z,5.20
2018-12-27T06:49:45.930Z,5.10
2018-12-27T06:52:34.354Z,5.10
2018-12-27T06:55:22.583Z,5.10
2018-12-27T06:58:37.590Z,4.60
2018-12-27T07:01:19.783Z,5.10
2018-12-27T07:04:08.135Z,5.20
2018-12-27T07:06:56.655Z,5.10
2018-12-27T07:09:44.784Z,5.10
2018-12-27T07:12:32.855Z,5.10
2018-12-27T07:15:21.019Z,5.20
2018-12-27T07:18:09.413Z,5.10
2018-12-27T07:20:57.805Z,5.20
2018-12-27T07:23:45.962Z,5.20
2018-12-27T07:26:34.085Z,5.20
2018-12-27T07:29:22.165Z,5.10
2018-12-27T07:32:02.686Z,5.40
2018-12-27T07:34:43.551Z,5.20
2018-12-27T07:37:24.401Z,5.20
2018-12-27T07:40:05.205Z,5.30
2018-12-27T07:42:46.022Z,5.30
2018-12-27T07:45:26.491Z,5.30
2018-12-27T07:48:07.339Z,5.40
2018-12-27T07:50:47.732Z,5.40
2018-12-27T07:53:28.384Z,5.40
2018-12-27T07:56:09.152Z,5.40
2018-12-27T07:58:49.845Z,5.40
2018-12-27T08:01:30.772Z,5.50
2018-12-27T08:04:11.514Z,5.50
2018-12-27T08:06:51.998Z,5.50
2018-12-27T08:09:33.605Z,5.60
2018-12-27T08:12:14.429Z,5.60
2018-12-27T08:14:55.330Z,5.70
2018-12-27T08:17:36.034Z,5.80
2018-12-27T08:20:16.919Z,4.70
2018-12-27T08:22:58.464Z,5.80
2018-12-27T08:25:39.018Z,6.00
2018-12-27T08:31:01.850Z,6.10
2018-12-27T08:33:42.813Z,6.10
2018-12-27T08:36:23.416Z,6.10
2018-12-27T08:39:04.917Z,6.20
2018-12-27T08:50:27.619Z,6.60
2018-12-27T08:53:08.980Z,6.60
2018-12-27T08:55:49.614Z,6.80
2018-12-27T08:58:30.534Z,6.90
2018-12-27T09:01:11.586Z,7.00
2018-12-27T09:03:52.372Z,7.10
2018-12-27T09:06:34.119Z,7.10
2018-12-27T09:09:14.747Z,7.10
2018-12-27T09:11:56.185Z,7.20
2018-12-27T09:14:36.880Z,7.20
2018-12-27T09:17:17.837Z,7.20
2018-12-27T09:19:59.244Z,7.20
2018-12-27T09:22:40.129Z,7.20
2018-12-27T09:28:10.391Z,7.20
2018-12-27T09:30:51.809Z,7.20
2018-12-27T09:33:33.705Z,7.30
2018-12-27T09:36:14.983Z,7.30
2018-12-27T09:38:55.837Z,7.30
2018-12-27T09:41:36.564Z,7.30
2018-12-27T09:44:16.109Z,7.30
2018-12-27T09:47:38.478Z,7.30
2018-12-27T09:49:57.243Z,7.40
2018-12-27T09:52:26.538Z,7.40
2018-12-27T09:54:56.120Z,7.50
2018-12-27T09:57:25.154Z,7.60
2018-12-27T09:59:54.504Z,7.70
2018-12-27T10:02:24.321Z,7.80
2018-12-27T10:04:53.626Z,7.90
2018-12-27T10:07:23.212Z,7.90
2018-12-27T10:09:52.743Z,8.00
2018-12-27T10:12:22.600Z,7.90
2018-12-27T10:14:52.510Z,8.00
2018-12-27T10:17:21.806Z,8.00
2018-12-27T10:19:50.756Z,8.00
2018-12-27T10:22:20.022Z,8.10
2018-12-27T10:24:48.921Z,8.10
2018-12-27T10:27:17.907Z,8.10
2018-12-27T10:29:47.654Z,8.10
2018-12-27T10:32:17.427Z,8.20
2018-12-27T10:34:47.272Z,8.30
2018-12-27T10:37:16.320Z,8.30
2018-12-27T10:39:45.980Z,8.30
2018-12-27T10:42:15.747Z,8.40
2018-12-27T10:44:45.677Z,8.40
2018-12-27T10:47:14.960Z,8.50
2018-12-27T10:49:44.169Z,8.70
2018-12-27T10:52:13.229Z,8.60
2018-12-27T10:54:42.685Z,8.70
2018-12-27T10:57:12.404Z,8.80
2018-12-27T10:59:41.708Z,8.70
2018-12-27T11:02:11.105Z,8.70
2018-12-27T11:04:40.484Z,8.70
2018-12-27T11:07:09.416Z,8.60
2018-12-27T11:09:38.429Z,8.60
2018-12-27T11:12:10.521Z,8.60
2018-12-27T11:14:39.808Z,8.60
2018-12-27T11:17:08.768Z,8.60
2018-12-27T11:19:37.755Z,8.70
2018-12-27T11:22:07.256Z,8.70
2018-12-27T11:24:36.704Z,8.80
2018-12-27T11:27:05.892Z,8.90
2018-12-27T11:29:35.070Z,9.00
2018-12-27T11:32:04.766Z,9.00
2018-12-27T11:34:33.920Z,9.00
2018-12-27T11:37:02.952Z,9.10
2018-12-27T11:39:31.948Z,9.10
2018-12-27T11:42:01.408Z,9.00
2018-12-27T11:44:30.723Z,9.10
2018-12-27T11:46:59.781Z,9.10
2018-12-27T11:49:28.647Z,9.20
2018-12-27T11:51:57.585Z,9.20
2018-12-27T11:54:26.893Z,9.30
2018-12-27T11:56:56.225Z,9.30
2018-12-27T11:59:25.320Z,9.30
2018-12-27T12:01:54.214Z,9.30
2018-12-27T12:04:23.252Z,9.30
2018-12-27T12:06:52.424Z,9.40
2018-12-27T12:09:21.737Z,9.40
2018-12-27T12:11:50.735Z,9.50
2018-12-27T12:14:19.976Z,9.50
2018-12-27T12:16:49.346Z,9.50
2018-12-27T12:19:18.338Z,9.50
2018-12-27T12:21:47.294Z,9.60
2018-12-27T12:24:16.696Z,9.70
2018-12-27T12:26:46.187Z,9.70
2018-12-27T12:29:15.300Z,9.70
2018-12-27T12:31:44.613Z,9.70
2018-12-27T12:34:13.660Z,9.70
2018-12-27T12:36:43.403Z,9.80
2018-12-27T12:39:12.689Z,9.80
2018-12-27T12:41:41.788Z,9.80
2018-12-27T12:44:11.616Z,9.80
2018-12-27T12:46:40.915Z,9.80
2018-12-27T12:49:10.178Z,9.70
2018-12-27T12:51:39.422Z,9.70
2018-12-27T12:54:08.479Z,9.70
2018-12-27T12:56:37.497Z,9.70
2018-12-27T12:59:06.632Z,9.70
2018-12-27T13:01:36.112Z,9.70
2018-12-27T13:04:05.262Z,9.80
2018-12-27T13:06:34.692Z,9.80
2018-12-27T13:09:05.548Z,9.90
2018-12-27T13:11:34.616Z,10.00
2018-12-27T13:14:03.622Z,10.00
2018-12-27T13:16:33.111Z,10.10
2018-12-27T13:19:02.847Z,10.10
2018-12-27T13:21:31.828Z,10.10
2018-12-27T13:24:01.352Z,10.10
2018-12-27T13:26:30.423Z,10.10
2018-12-27T13:28:59.404Z,10.00
2018-12-27T13:31:28.343Z,10.00
2018-12-27T13:33:57.746Z,10.10
2018-12-27T13:36:26.805Z,10.20
2018-12-27T13:38:55.916Z,10.20
2018-12-27T13:41:25.183Z,10.20
2018-12-27T13:43:54.403Z,10.20
2018-12-27T13:46:42.598Z,10.20
2018-12-27T13:49:11.833Z,10.20
2018-12-27T13:51:40.824Z,10.20
2018-12-27T13:54:10.156Z,10.20
2018-12-27T13:56:39.157Z,10.20
2018-12-27T13:59:08.023Z,10.20
2018-12-27T14:01:37.037Z,10.30
2018-12-27T14:04:06.037Z,10.30
2018-12-27T14:06:34.959Z,10.40
2018-12-27T14:09:05.136Z,10.40
2018-12-27T14:11:34.158Z,10.50
2018-12-27T14:14:03.208Z,10.40
2018-12-27T14:16:32.335Z,10.40
2018-12-27T14:19:01.362Z,10.40
2018-12-27T14:21:30.378Z,10.40
2018-12-27T14:24:00.062Z,10.40
2018-12-27T14:26:29.703Z,10.40
2018-12-27T14:28:58.788Z,10.40
2018-12-27T14:31:27.900Z,10.40
2018-12-27T14:33:56.893Z,10.40
2018-12-27T14:36:26.182Z,10.40
2018-12-27T14:38:55.791Z,10.30
2018-12-27T14:41:25.091Z,10.30
2018-12-27T14:43:54.019Z,10.20
2018-12-27T14:46:23.171Z,10.10
2018-12-27T14:48:52.179Z,10.00
2018-12-27T14:51:21.124Z,10.00
2018-12-27T14:53:50.018Z,9.90
2018-12-27T14:56:19.070Z,10.00
2018-12-27T14:58:48.054Z,9.90
2018-12-27T15:01:17.167Z,9.80
2018-12-27T15:03:46.266Z,9.80
2018-12-27T15:06:15.705Z,9.80
2018-12-27T15:08:44.765Z,9.90
2018-12-27T15:11:14.365Z,9.90
2018-12-27T15:13:43.620Z,9.90
2018-12-27T15:16:12.924Z,9.90
2018-12-27T15:18:42.415Z,9.90
2018-12-27T15:21:11.726Z,9.80
2018-12-27T15:23:40.995Z,9.80
2018-12-27T15:26:10.101Z,9.80
2018-12-27T15:28:39.161Z,9.70
2018-12-27T15:31:08.188Z,9.70
2018-12-27T15:33:37.850Z,9.70
2018-12-27T15:36:06.774Z,9.70
2018-12-27T15:38:35.745Z,9.70
2018-12-27T15:41:04.817Z,9.70
2018-12-27T15:43:33.855Z,9.60
2018-12-27T15:46:03.163Z,9.60
2018-12-27T15:48:32.528Z,9.60
2018-12-27T15:51:01.857Z,9.70
2018-12-27T15:53:30.824Z,9.70
2018-12-27T15:56:00.249Z,9.70
2018-12-27T15:58:29.244Z,9.70
2018-12-27T16:00:59.009Z,9.70
2018-12-27T16:03:28.046Z,9.70
2018-12-27T16:05:57.130Z,9.70
2018-12-27T16:08:26.559Z,9.70
2018-12-27T16:10:55.452Z,9.60
2018-12-27T16:13:24.904Z,9.60
2018-12-27T16:15:53.844Z,9.60
2018-12-27T16:18:23.095Z,9.60
2018-12-27T16:20:52.377Z,9.50
2018-12-27T16:23:21.345Z,9.50
2018-12-27T16:25:50.451Z,9.50
2018-12-27T16:28:19.804Z,9.40
2018-12-27T16:30:49.174Z,9.40
2018-12-27T16:33:18.588Z,9.30
2018-12-27T16:35:47.944Z,9.30
2018-12-27T16:38:16.969Z,9.30
2018-12-27T16:40:46.798Z,9.30
2018-12-27T16:43:15.850Z,9.20
2018-12-27T16:45:44.905Z,9.20
2018-12-27T16:48:13.800Z,9.20
2018-12-27T16:50:43.127Z,9.20
2018-12-27T16:53:12.025Z,9.10
2018-12-27T16:55:41.485Z,9.20
2018-12-27T16:58:10.492Z,9.10
2018-12-27T17:00:39.466Z,9.20
2018-12-27T17:03:08.508Z,9.20
2018-12-27T17:05:37.955Z,9.20
2018-12-27T17:08:07.313Z,9.20
2018-12-27T17:10:36.559Z,9.30
2018-12-27T17:13:05.484Z,9.30
2018-12-27T17:15:34.450Z,9.30
2018-12-27T17:18:03.938Z,9.30
2018-12-27T17:20:33.228Z,9.30
2018-12-27T17:23:02.416Z,9.30
2018-12-27T17:25:31.433Z,9.30
2018-12-27T17:28:00.502Z,9.30
2018-12-27T17:30:29.980Z,9.30
2018-12-27T17:32:59.688Z,9.30
2018-12-27T17:35:28.914Z,9.30
2018-12-27T17:37:59.110Z,9.30
2018-12-27T17:40:28.571Z,9.30
2018-12-27T17:42:57.654Z,9.40
2018-12-27T17:45:27.273Z,9.30
2018-12-27T17:47:56.498Z,9.40
2018-12-27T17:50:25.456Z,9.40
2018-12-27T17:52:54.699Z,9.30
2018-12-27T17:55:23.959Z,9.30
2018-12-27T17:57:53.993Z,9.20
2018-12-27T18:00:23.390Z,9.10
2018-12-27T18:02:52.752Z,9.10
2018-12-27T18:05:21.812Z,9.10
2018-12-27T18:07:50.874Z,9.10
2018-12-27T18:10:19.910Z,9.10
2018-12-27T18:12:48.970Z,9.10
2018-12-27T18:15:17.921Z,9.00
2018-12-27T18:17:46.997Z,9.00
2018-12-27T18:20:16.375Z,9.00
2018-12-27T18:22:45.440Z,9.00
2018-12-27T18:25:14.731Z,8.90
2018-12-27T18:27:44.056Z,8.90
2018-12-27T18:30:13.098Z,9.00
2018-12-27T18:32:42.397Z,9.00
2018-12-27T18:35:11.728Z,9.00
2018-12-27T18:37:40.701Z,9.00
2018-12-27T18:40:09.718Z,9.00
2018-12-27T18:42:38.820Z,9.10
2018-12-27T18:45:08.527Z,9.10
2018-12-27T18:47:37.581Z,9.10
2018-12-27T18:50:07.110Z,9.10
2018-12-27T18:52:36.620Z,9.10
2018-12-27T18:55:05.789Z,9.10
2018-12-27T18:57:34.857Z,9.10
2018-12-27T19:00:04.934Z,9.00
2018-12-27T19:02:33.884Z,9.00
2018-12-27T19:05:02.952Z,9.10
2018-12-27T19:07:31.833Z,9.00
2018-12-27T19:10:00.688Z,9.00
2018-12-27T19:13:07.364Z,9.10
2018-12-27T19:15:49.164Z,9.10
2018-12-27T19:18:31.590Z,9.00
2018-12-27T19:21:05.806Z,9.00
2018-12-27T19:23:34.858Z,9.00
2018-12-27T19:26:03.902Z,9.00
2018-12-27T19:28:33.688Z,8.90
2018-12-27T19:31:02.727Z,8.90
2018-12-27T19:33:31.860Z,9.00
2018-12-27T19:36:00.900Z,9.00
2018-12-27T19:38:29.925Z,9.00
2018-12-27T19:40:59.265Z,9.00
2018-12-27T19:43:28.197Z,9.10
2018-12-27T19:45:57.219Z,9.10
2018-12-27T19:48:26.211Z,9.10
2018-12-27T19:50:56.470Z,9.10
2018-12-27T19:53:25.484Z,9.00
2018-12-27T19:55:54.533Z,9.00
2018-12-27T19:58:24.573Z,9.00
2018-12-27T20:00:53.555Z,9.00
2018-12-27T20:03:23.092Z,9.00
2018-12-27T20:05:52.172Z,9.00
2018-12-27T20:08:21.068Z,9.00
2018-12-27T20:10:50.151Z,9.00
2018-12-27T20:13:19.570Z,9.00
2018-12-27T20:15:48.723Z,8.90
2018-12-27T20:18:17.749Z,8.90
2018-12-27T20:20:46.942Z,8.90
2018-12-27T20:23:15.977Z,8.90
2018-12-27T20:25:45.034Z,8.90
2018-12-27T20:28:14.528Z,8.90
2018-12-27T20:30:43.536Z,8.90
2018-12-27T20:33:12.618Z,8.80
2018-12-27T20:35:41.709Z,8.80
2018-12-27T20:38:10.684Z,8.80
2018-12-27T20:40:40.076Z,8.80
2018-12-27T20:43:09.441Z,8.70
2018-12-27T20:45:38.527Z,8.70
2018-12-27T20:48:07.425Z,8.70
2018-12-27T20:50:36.448Z,8.70
2018-12-27T20:53:05.715Z,8.70
2018-12-27T20:55:34.995Z,8.70
2018-12-27T20:58:04.234Z,8.70
2018-12-27T21:00:33.309Z,8.80
2018-12-27T21:03:02.434Z,8.80
2018-12-27T21:05:31.424Z,8.80
2018-12-27T21:08:00.472Z,8.80
2018-12-27T21:10:29.817Z,8.80
2018-12-27T21:12:59.290Z,8.80
2018-12-27T21:15:28.809Z,8.70
2018-12-27T21:17:57.809Z,8.70
2018-12-27T21:20:27.087Z,8.70
2018-12-27T21:22:56.472Z,8.60
2018-12-27T21:25:25.467Z,8.60
2018-12-27T21:27:54.481Z,8.50
2018-12-27T21:30:23.464Z,8.50
2018-12-27T21:32:52.646Z,8.50
2018-12-27T21:35:21.633Z,8.50
2018-12-27T21:37:50.764Z,8.50
2018-12-27T21:40:19.761Z,8.50
2018-12-27T21:42:49.094Z,8.50
2018-12-27T21:45:18.242Z,8.50
2018-12-27T21:47:47.366Z,8.50
2018-12-27T21:50:16.529Z,8.50
2018-12-27T21:52:45.522Z,8.50
2018-12-27T21:55:14.570Z,8.50
2018-12-27T21:57:43.637Z,8.50
2018-12-27T22:00:12.663Z,8.50
2018-12-27T22:02:41.660Z,8.50
2018-12-27T22:05:11.112Z,8.50
2018-12-27T22:07:40.540Z,8.50
2018-12-27T22:10:10.218Z,8.50
2018-12-27T22:12:39.777Z,8.60
2018-12-27T22:15:09.118Z,8.50
2018-12-27T22:17:38.166Z,8.40
2018-12-27T22:20:07.227Z,8.30
2018-12-27T22:22:36.895Z,8.30
2018-12-27T22:25:06.213Z,8.30
2018-12-27T22:27:35.305Z,8.30
2018-12-27T22:30:05.053Z,8.30
2018-12-27T22:32:34.219Z,8.30
2018-12-27T22:35:03.593Z,8.30
2018-12-27T22:37:33.151Z,8.30
2018-12-27T22:40:02.167Z,8.30
2018-12-27T22:42:31.227Z,8.30
2018-12-27T22:45:00.288Z,8.40
2018-12-27T22:47:29.620Z,8.40
2018-12-27T22:49:58.669Z,8.40
2018-12-27T22:52:27.889Z,8.40
2018-12-27T22:54:57.083Z,8.40
2018-12-27T22:57:26.387Z,8.40
2018-12-27T22:59:55.760Z,8.40
2018-12-27T23:02:24.960Z,8.40
2018-12-27T23:04:54.504Z,8.30
2018-12-27T23:07:23.587Z,8.30
2018-12-27T23:09:52.657Z,8.30
2018-12-27T23:12:22.009Z,8.40
2018-12-27T23:14:51.018Z,8.40
2018-12-27T23:17:20.431Z,8.40
2018-12-27T23:19:49.487Z,8.40
2018-12-27T23:22:19.068Z,8.40
2018-12-27T23:24:48.032Z,8.40
2018-12-27T23:27:17.267Z,8.40
2018-12-27T23:29:46.361Z,8.40
2018-12-27T23:32:15.511Z,8.30
2018-12-27T23:34:44.510Z,8.30
2018-12-27T23:37:14.199Z,8.30
2018-12-27T23:39:43.601Z,8.30
2018-12-27T23:42:12.822Z,8.20
2018-12-27T23:44:41.899Z,8.20
2018-12-27T23:47:10.955Z,8.20
2018-12-27T23:49:39.934Z,8.20
2018-12-27T23:52:09.062Z,8.20
2018-12-27T23:54:38.226Z,8.20
2018-12-27T23:57:07.755Z,8.20
2018-12-27T23:59:37.351Z,8.20
